Time;durP1;ratioP1;P1;durP2;ratioP2;P2;SDS_P1;SDS_P2;PMS_P1;PMS_P2;Temp;Humidity;BMP_temperature;BMP_pressure;BME280_temperature;BME280_humidity;BME280_pressure;Samples;Min_cycle;Max_cycle;Signal;HPM_P1;HPM_P2
2024/04/10 00:00:58;;;;;;;0.20;0.20;;;;;;;;;;5384725;26;20008;-60
2024/04/10 00:03:23;;;;;;;0.00;0.00;;;;;;;;;;5391856;26;19999;-60
2024/04/10 00:05:58;;;;;;;0.00;0.00;;;;;;;;;;5418679;26;20076;-60
2024/04/10 00:08:23;;;;;;;0.45;0.45;;;;;;;;;;5369517;26;20429;-59
2024/04/10 00:10:51;;;;;;;0.00;0.00;;;;;;;;;;5384291;26;20012;-60
2024/04/10 00:13:17;;;;;;;0.10;0.10;;;;;;;;;;5400755;26;20006;-60
2024/04/10 00:15:42;;;;;;;0.10;0.10;;;;;;;;;;5419080;26;20000;-60
2024/04/10 00:18:07;;;;;;;0.00;0.00;;;;;;;;;;5395245;26;19997;-60
2024/04/10 00:20:32;;;;;;;0.10;0.10;;;;;;;;;;5385307;26;20004;-59
2024/04/10 00:22:57;;;;;;;0.10;0.10;;;;;;;;;;5417993;26;20006;-60
2024/04/10 00:25:22;;;;;;;0.20;0.20;;;;;;;;;;5418323;26;20424;-59
2024/04/10 00:27:48;;;;;;;0.47;0.43;;;;;;;;;;5402123;26;20012;-60
2024/04/10 00:30:13;;;;;;;0.10;0.10;;;;;;;;;;5385950;26;20000;-59
2024/04/10 00:32:38;;;;;;;0.10;0.10;;;;;;;;;;5384907;26;20314;-60
2024/04/10 00:35:03;;;;;;;0.10;0.10;;;;;;;;;;5414398;26;20439;-60
2024/04/10 00:37:29;;;;;;;0.10;0.10;;;;;;;;;;5418250;26;20602;-60
2024/04/10 00:39:54;;;;;;;0.08;0.08;;;;;;;;;;5415095;26;20331;-60
2024/04/10 00:42:21;;;;;;;0.10;0.10;;;;;;;;;;5389195;26;20000;-59
2024/04/10 00:44:51;;;;;;;0.10;0.10;;;;;;;;;;5416944;26;20457;-60
2024/04/10 00:47:17;;;;;;;0.10;0.10;;;;;;;;;;5417292;26;19995;-60
2024/04/10 00:49:42;;;;;;;0.10;0.10;;;;;;;;;;5388656;26;20000;-60
2024/04/10 00:52:08;;;;;;;0.10;0.10;;;;;;;;;;5410722;26;20000;-60
2024/04/10 00:54:34;;;;;;;0.10;0.10;;;;;;;;;;5385606;26;20000;-60
2024/04/10 00:56:59;;;;;;;0.38;0.30;;;;;;;;;;5399840;26;20000;-60
2024/04/10 00:59:25;;;;;;;0.17;0.17;;;;;;;;;;5398143;26;20094;-59
2024/04/10 01:01:50;;;;;;;0.08;0.08;;;;;;;;;;5397908;26;20409;-59
2024/04/10 01:04:15;;;;;;;0.40;0.40;;;;;;;;;;5383323;26;20004;-60
2024/04/10 01:06:40;;;;;;;0.40;0.40;;;;;;;;;;5383411;26;20271;-60
2024/04/10 01:09:05;;;;;;;0.00;0.00;;;;;;;;;;5410432;26;20335;-59
2024/04/10 01:11:30;;;;;;;0.10;0.10;;;;;;;;;;5417277;26;20084;-59
2024/04/10 01:13:56;;;;;;;0.10;0.10;;;;;;;;;;5396522;26;20804;-60
2024/04/10 01:16:21;;;;;;;0.00;0.00;;;;;;;;;;5398091;26;20011;-60
2024/04/10 01:18:46;;;;;;;0.10;0.10;;;;;;;;;;5417357;26;20004;-60
2024/04/10 01:21:12;;;;;;;2.37;1.60;;;;;;;;;;5411191;26;20324;-60
2024/04/10 01:23:37;;;;;;;0.05;0.05;;;;;;;;;;5383080;26;20011;-59
2024/04/10 01:26:03;;;;;;;0.10;0.10;;;;;;;;;;5383817;26;19996;-60
2024/04/10 01:28:28;;;;;;;0.10;0.10;;;;;;;;;;5384982;26;20274;-59
2024/04/10 01:30:53;;;;;;;0.10;0.10;;;;;;;;;;5394228;26;20436;-60
2024/04/10 01:33:19;;;;;;;0.00;0.00;;;;;;;;;;5387123;26;20015;-60
2024/04/10 01:35:44;;;;;;;0.00;0.00;;;;;;;;;;5399106;26;20038;-60
2024/04/10 01:38:09;;;;;;;0.00;0.00;;;;;;;;;;5383007;26;20000;-59
2024/04/10 01:40:35;;;;;;;0.03;0.03;;;;;;;;;;5382798;26;19996;-59
2024/04/10 01:43:00;;;;;;;0.10;0.10;;;;;;;;;;5383243;26;20000;-60
2024/04/10 01:45:25;;;;;;;0.10;0.10;;;;;;;;;;5394842;26;19995;-60
2024/04/10 01:47:50;;;;;;;0.20;0.10;;;;;;;;;;5416590;26;20241;-60
2024/04/10 01:50:16;;;;;;;0.10;0.10;;;;;;;;;;5417529;26;20003;-60
2024/04/10 01:52:41;;;;;;;0.20;0.20;;;;;;;;;;5416606;26;19992;-60
2024/04/10 01:55:06;;;;;;;0.23;0.23;;;;;;;;;;5418028;26;20214;-60
2024/04/10 01:57:32;;;;;;;0.00;0.00;;;;;;;;;;5417938;26;20756;-60
2024/04/10 01:59:57;;;;;;;0.10;0.10;;;;;;;;;;5408239;26;20015;-60
2024/04/10 02:02:22;;;;;;;0.10;0.10;;;;;;;;;;5394967;26;20019;-59
2024/04/10 02:04:47;;;;;;;0.10;0.10;;;;;;;;;;5384343;26;20624;-60
2024/04/10 02:07:12;;;;;;;0.13;0.13;;;;;;;;;;5416847;26;20092;-60
2024/04/10 02:09:38;;;;;;;0.13;0.13;;;;;;;;;;5417055;26;20013;-59
2024/04/10 02:13:24;;;;;;;0.10;0.10;;;;;;;;;;5546519;25;20425;-59
2024/04/10 02:15:49;;;;;;;0.22;0.22;;;;;;;;;;5531965;25;20009;-59
2024/04/10 02:18:14;;;;;;;0.10;0.10;;;;;;;;;;5527410;25;20002;-59
2024/04/10 02:20:39;;;;;;;0.00;0.00;;;;;;;;;;5517655;25;19997;-60
2024/04/10 02:23:05;;;;;;;1.77;0.93;;;;;;;;;;5516770;25;20333;-60
2024/04/10 02:25:32;;;;;;;0.10;0.10;;;;;;;;;;5525026;25;19997;-59
2024/04/10 02:27:58;;;;;;;0.10;0.10;;;;;;;;;;5541253;25;20320;-59
2024/04/10 02:30:23;;;;;;;0.10;0.10;;;;;;;;;;5531741;25;20005;-59
2024/04/10 02:32:48;;;;;;;0.20;0.20;;;;;;;;;;5529273;25;20010;-59
2024/04/10 02:35:13;;;;;;;0.10;0.10;;;;;;;;;;5508810;25;20351;-59
2024/04/10 02:37:39;;;;;;;0.10;0.10;;;;;;;;;;5508718;25;20073;-59
2024/04/10 02:40:04;;;;;;;0.03;0.03;;;;;;;;;;5513018;25;20242;-59
2024/04/10 02:42:30;;;;;;;0.52;0.52;;;;;;;;;;5521145;25;20002;-59
2024/04/10 02:44:55;;;;;;;0.00;0.00;;;;;;;;;;5508729;25;20013;-59
2024/04/10 02:47:20;;;;;;;0.20;0.20;;;;;;;;;;5525323;25;20695;-59
2024/04/10 02:49:45;;;;;;;0.10;0.10;;;;;;;;;;5514447;25;20222;-59
2024/04/10 02:52:10;;;;;;;0.00;0.00;;;;;;;;;;5544656;25;20439;-60
2024/04/10 02:54:36;;;;;;;0.10;0.10;;;;;;;;;;5514282;25;20009;-60
2024/04/10 02:57:01;;;;;;;0.10;0.10;;;;;;;;;;5508511;25;20002;-62
2024/04/10 02:59:26;;;;;;;0.10;0.10;;;;;;;;;;5508579;25;20010;-61
2024/04/10 03:01:51;;;;;;;0.10;0.10;;;;;;;;;;5525560;25;20271;-61
2024/04/10 03:04:17;;;;;;;0.10;0.10;;;;;;;;;;5516333;25;20230;-61
2024/04/10 03:06:42;;;;;;;0.00;0.00;;;;;;;;;;5544550;25;20073;-61
2024/04/10 03:09:08;;;;;;;0.73;0.73;;;;;;;;;;5510968;25;19997;-61
2024/04/10 03:11:33;;;;;;;0.10;0.10;;;;;;;;;;5515168;25;20001;-61
2024/04/10 03:13:59;;;;;;;0.10;0.10;;;;;;;;;;5529960;25;20226;-61
2024/04/10 03:16:24;;;;;;;0.20;0.20;;;;;;;;;;5527151;25;20001;-61
2024/04/10 03:18:49;;;;;;;0.10;0.10;;;;;;;;;;5531858;25;20009;-61
2024/04/10 03:21:14;;;;;;;0.17;0.17;;;;;;;;;;5528810;25;20274;-61
2024/04/10 03:23:39;;;;;;;0.30;0.30;;;;;;;;;;5532968;25;20296;-61
2024/04/10 03:26:05;;;;;;;0.10;0.10;;;;;;;;;;5514073;25;20378;-61
2024/04/10 03:28:30;;;;;;;0.08;0.08;;;;;;;;;;5515582;25;20600;-61
2024/04/10 03:30:56;;;;;;;0.08;0.08;;;;;;;;;;5526393;26;20012;-61
2024/04/10 03:33:22;;;;;;;0.10;0.10;;;;;;;;;;5518822;25;19994;-61
2024/04/10 03:35:48;;;;;;;0.10;0.10;;;;;;;;;;5520175;26;20274;-61
2024/04/10 03:38:13;;;;;;;0.43;0.20;;;;;;;;;;5496474;25;19994;-61
2024/04/10 03:40:38;;;;;;;0.10;0.10;;;;;;;;;;5527270;26;19997;-61
2024/04/10 03:43:03;;;;;;;0.00;0.00;;;;;;;;;;5528533;25;19993;-61
2024/04/10 03:45:29;;;;;;;0.10;0.10;;;;;;;;;;5526545;25;20230;-61
2024/04/10 03:47:54;;;;;;;0.33;0.33;;;;;;;;;;5501010;25;20328;-61
2024/04/10 03:50:19;;;;;;;0.00;0.00;;;;;;;;;;5528492;25;20256;-62
2024/04/10 03:52:44;;;;;;;1.73;0.57;;;;;;;;;;5528712;25;19989;-61
2024/04/10 03:55:10;;;;;;;0.20;0.20;;;;;;;;;;5528754;25;20215;-61
2024/04/10 03:57:35;;;;;;;0.10;0.10;;;;;;;;;;5528695;25;20254;-61
2024/04/10 04:00:00;;;;;;;0.10;0.10;;;;;;;;;;5510090;25;20070;-61
2024/04/10 04:02:26;;;;;;;0.00;0.00;;;;;;;;;;5520767;25;20443;-62
2024/04/10 04:04:51;;;;;;;0.20;0.20;;;;;;;;;;5492200;26;20008;-61
2024/04/10 04:07:16;;;;;;;0.10;0.10;;;;;;;;;;5494174;26;20002;-62
2024/04/10 04:09:41;;;;;;;0.10;0.10;;;;;;;;;;5527614;25;20450;-64
2024/04/10 04:12:06;;;;;;;0.10;0.10;;;;;;;;;;5527862;25;20073;-61
2024/04/10 04:14:32;;;;;;;0.10;0.10;;;;;;;;;;5527104;25;20299;-62
2024/04/10 04:16:57;;;;;;;0.00;0.00;;;;;;;;;;5519016;25;20002;-62
2024/04/10 04:19:22;;;;;;;0.10;0.10;;;;;;;;;;5520261;26;20005;-60
2024/04/10 04:21:47;;;;;;;0.10;0.10;;;;;;;;;;5492866;26;20002;-64
2024/04/10 04:24:13;;;;;;;0.10;0.10;;;;;;;;;;5491503;26;20294;-64
2024/04/10 04:26:39;;;;;;;0.47;0.40;;;;;;;;;;5475245;26;20010;-64
2024/04/10 04:29:04;;;;;;;0.10;0.10;;;;;;;;;;5491048;26;19994;-64
2024/04/10 04:31:29;;;;;;;9.13;0.60;;;;;;;;;;5507745;26;20324;-64
2024/04/10 04:33:55;;;;;;;0.20;0.20;;;;;;;;;;5507053;26;19994;-64
2024/04/10 04:36:20;;;;;;;0.13;0.13;;;;;;;;;;5510279;26;19998;-64
2024/04/10 04:38:46;;;;;;;0.10;0.10;;;;;;;;;;5514346;25;20360;-64
2024/04/10 04:41:11;;;;;;;0.20;0.20;;;;;;;;;;5517004;25;20029;-64
2024/04/10 04:43:36;;;;;;;0.20;0.20;;;;;;;;;;5491039;26;19997;-64
2024/04/10 04:46:02;;;;;;;0.80;0.80;;;;;;;;;;5491106;26;20256;-64
2024/04/10 04:48:27;;;;;;;0.20;0.20;;;;;;;;;;5489636;26;19989;-64
2024/04/10 04:50:54;;;;;;;0.10;0.10;;;;;;;;;;5490827;26;19987;-64
2024/04/10 04:53:19;;;;;;;0.00;0.00;;;;;;;;;;5491459;26;20005;-64
2024/04/10 04:55:44;;;;;;;5.45;0.52;;;;;;;;;;5491058;26;20330;-64
2024/04/10 04:58:10;;;;;;;0.73;0.73;;;;;;;;;;5490952;26;20333;-64
2024/04/10 05:00:36;;;;;;;0.10;0.10;;;;;;;;;;5491002;26;20423;-64
2024/04/10 05:03:04;;;;;;;0.10;0.10;;;;;;;;;;5491055;26;20004;-64
2024/04/10 05:05:33;;;;;;;0.10;0.10;;;;;;;;;;5490827;26;20435;-64
2024/04/10 05:07:58;;;;;;;0.10;0.10;;;;;;;;;;5490866;26;20002;-64
2024/04/10 05:10:23;;;;;;;0.40;0.30;;;;;;;;;;5490843;26;19997;-64
2024/04/10 05:12:49;;;;;;;0.10;0.10;;;;;;;;;;5490829;26;20580;-64
2024/04/10 05:15:15;;;;;;;0.10;0.10;;;;;;;;;;5491030;26;20430;-64
2024/04/10 05:17:41;;;;;;;0.10;0.10;;;;;;;;;;5491069;26;19994;-61
2024/04/10 05:20:10;;;;;;;0.00;0.00;;;;;;;;;;5491011;26;20005;-62
2024/04/10 05:22:35;;;;;;;0.77;0.43;;;;;;;;;;5490997;26;20384;-62
2024/04/10 05:25:01;;;;;;;1.75;0.75;;;;;;;;;;5490936;26;20067;-62
2024/04/10 05:27:27;;;;;;;0.10;0.10;;;;;;;;;;5490783;26;20469;-61
2024/04/10 05:29:53;;;;;;;0.10;0.10;;;;;;;;;;5490845;26;20325;-62
2024/04/10 05:32:18;;;;;;;0.10;0.10;;;;;;;;;;5490771;26;19994;-62
2024/04/10 05:34:44;;;;;;;0.10;0.10;;;;;;;;;;5490769;26;19990;-62
2024/04/10 05:37:09;;;;;;;0.10;0.10;;;;;;;;;;5490774;26;19995;-61
2024/04/10 05:39:35;;;;;;;0.20;0.20;;;;;;;;;;5490340;26;20392;-62
2024/04/10 05:42:06;;;;;;;0.63;0.63;;;;;;;;;;5490308;26;20006;-61
2024/04/10 05:44:31;;;;;;;0.10;0.10;;;;;;;;;;5490362;26;20318;-62
2024/04/10 05:46:57;;;;;;;0.10;0.10;;;;;;;;;;5489468;26;19994;-62
2024/04/10 05:49:22;;;;;;;0.10;0.10;;;;;;;;;;5490185;26;20005;-62
2024/04/10 05:51:47;;;;;;;0.08;0.08;;;;;;;;;;5490086;26;20215;-62
2024/04/10 05:54:12;;;;;;;0.20;0.20;;;;;;;;;;5490076;26;19994;-62
2024/04/10 05:56:38;;;;;;;0.10;0.10;;;;;;;;;;5490108;26;19994;-62
2024/04/10 05:59:05;;;;;;;0.40;0.23;;;;;;;;;;5490041;26;19994;-62
2024/04/10 06:01:30;;;;;;;0.20;0.20;;;;;;;;;;5489958;26;20494;-62
2024/04/10 06:03:56;;;;;;;0.85;0.85;;;;;;;;;;5490032;26;20005;-62
2024/04/10 06:06:21;;;;;;;0.10;0.10;;;;;;;;;;5489933;26;20009;-62
2024/04/10 06:08:46;;;;;;;0.25;0.20;;;;;;;;;;5489882;26;20009;-62
2024/04/10 06:11:12;;;;;;;0.10;0.10;;;;;;;;;;5489615;26;19998;-62
2024/04/10 06:13:37;;;;;;;0.20;0.20;;;;;;;;;;5489786;26;20070;-63
2024/04/10 06:16:03;;;;;;;0.53;0.53;;;;;;;;;;5489736;26;19994;-61
2024/04/10 06:18:28;;;;;;;0.00;0.00;;;;;;;;;;5489515;26;20221;-62
2024/04/10 06:20:57;;;;;;;0.30;0.30;;;;;;;;;;5489633;26;20323;-62
2024/04/10 06:23:24;;;;;;;0.10;0.10;;;;;;;;;;5489632;26;19995;-62
2024/04/10 06:25:52;;;;;;;0.10;0.10;;;;;;;;;;5489589;26;20031;-62
2024/04/10 06:28:17;;;;;;;0.10;0.10;;;;;;;;;;5489626;26;19998;-64
2024/04/10 06:30:43;;;;;;;1.93;0.90;;;;;;;;;;5489572;26;19998;-64
2024/04/10 06:33:08;;;;;;;0.15;0.15;;;;;;;;;;5489359;26;20483;-65
2024/04/10 06:35:34;;;;;;;1.35;0.45;;;;;;;;;;5489456;26;20005;-65
2024/04/10 06:37:59;;;;;;;0.30;0.30;;;;;;;;;;5489332;26;20002;-65
2024/04/10 06:40:24;;;;;;;3.47;1.37;;;;;;;;;;5489344;26;20212;-65
2024/04/10 06:42:49;;;;;;;0.10;0.10;;;;;;;;;;5489609;26;20442;-65
2024/04/10 06:45:14;;;;;;;0.10;0.10;;;;;;;;;;5489224;26;19994;-65
2024/04/10 06:47:40;;;;;;;0.40;0.17;;;;;;;;;;5489096;26;19994;-65
2024/04/10 06:50:06;;;;;;;0.10;0.10;;;;;;;;;;5489163;26;19991;-65
2024/04/10 06:52:31;;;;;;;1.27;0.93;;;;;;;;;;5489037;26;20315;-65
2024/04/10 06:54:56;;;;;;;0.10;0.10;;;;;;;;;;5489420;26;20337;-65
2024/04/10 06:57:21;;;;;;;0.30;0.30;;;;;;;;;;5489356;26;20006;-65
2024/04/10 06:59:47;;;;;;;0.53;0.43;;;;;;;;;;5492349;26;20156;-65
2024/04/10 07:02:12;;;;;;;1.03;0.57;;;;;;;;;;5492971;26;20467;-65
2024/04/10 07:04:37;;;;;;;1.20;0.67;;;;;;;;;;5492902;26;19994;-65
2024/04/10 07:07:05;;;;;;;1.38;0.63;;;;;;;;;;5492903;26;19994;-65
2024/04/10 07:09:32;;;;;;;9.82;0.32;;;;;;;;;;5492883;26;20437;-65
2024/04/10 07:11:57;;;;;;;0.30;0.30;;;;;;;;;;5492455;26;20005;-65
2024/04/10 07:14:22;;;;;;;2.60;0.93;;;;;;;;;;5492566;26;20009;-65
2024/04/10 07:16:48;;;;;;;0.20;0.20;;;;;;;;;;5492494;26;20215;-65
2024/04/10 07:19:13;;;;;;;0.20;0.20;;;;;;;;;;5492446;26;20472;-65
2024/04/10 07:21:39;;;;;;;0.52;0.40;;;;;;;;;;5492451;26;20002;-65
2024/04/10 07:24:04;;;;;;;7.07;1.40;;;;;;;;;;5492249;26;20004;-65
2024/04/10 07:26:29;;;;;;;0.47;0.47;;;;;;;;;;5492327;26;20006;-65
2024/04/10 07:28:55;;;;;;;9.13;1.00;;;;;;;;;;5492362;26;20012;-65
2024/04/10 07:31:21;;;;;;;0.90;0.50;;;;;;;;;;5492185;26;20014;-65
2024/04/10 07:33:51;;;;;;;0.15;0.15;;;;;;;;;;5492235;26;20006;-65
2024/04/10 07:36:18;;;;;;;0.15;0.15;;;;;;;;;;5492210;26;20383;-65
2024/04/10 07:38:43;;;;;;;0.68;0.50;;;;;;;;;;5492229;26;20062;-65
2024/04/10 07:41:09;;;;;;;0.32;0.30;;;;;;;;;;5492099;26;19994;-65
2024/04/10 07:43:35;;;;;;;0.85;0.47;;;;;;;;;;5492076;26;20338;-65
2024/04/10 07:46:07;;;;;;;0.52;0.45;;;;;;;;;;5492056;26;20009;-65
2024/04/10 07:48:33;;;;;;;0.10;0.10;;;;;;;;;;5491975;26;20013;-66
2024/04/10 07:51:00;;;;;;;1.20;0.77;;;;;;;;;;5491876;26;19995;-66
2024/04/10 07:53:25;;;;;;;2.40;1.25;;;;;;;;;;5491964;26;20326;-65
2024/04/10 07:55:50;;;;;;;0.83;0.50;;;;;;;;;;5491893;26;19998;-65
2024/04/10 07:58:16;;;;;;;0.30;0.30;;;;;;;;;;5491911;26;19995;-66
2024/04/10 08:00:41;;;;;;;0.83;0.83;;;;;;;;;;5491931;26;20013;-66
2024/04/10 08:03:08;;;;;;;0.43;0.20;;;;;;;;;;5491854;26;20009;-66
2024/04/10 08:05:33;;;;;;;10.68;0.93;;;;;;;;;;5491615;26;19998;-66
2024/04/10 08:08:00;;;;;;;3.30;1.73;;;;;;;;;;5491720;26;20008;-66
2024/04/10 08:10:25;;;;;;;0.30;0.30;;;;;;;;;;5491264;26;20030;-66
2024/04/10 08:12:54;;;;;;;0.37;0.37;;;;;;;;;;5491766;26;19998;-65
2024/04/10 08:15:19;;;;;;;0.90;0.88;;;;;;;;;;5491910;26;20070;-66
2024/04/10 08:17:45;;;;;;;0.00;0.00;;;;;;;;;;5491926;26;20006;-65
2024/04/10 08:20:10;;;;;;;0.20;0.20;;;;;;;;;;5491912;26;20220;-65
2024/04/10 08:22:36;;;;;;;3.03;0.80;;;;;;;;;;5491816;26;20005;-66
2024/04/10 08:25:01;;;;;;;0.50;0.50;;;;;;;;;;5491817;26;19994;-65
2024/04/10 08:27:26;;;;;;;1.95;0.65;;;;;;;;;;5491816;26;19994;-65
2024/04/10 08:29:53;;;;;;;1.67;0.87;;;;;;;;;;5491763;26;19994;-65
2024/04/10 08:32:18;;;;;;;0.82;0.47;;;;;;;;;;5491589;26;20318;-65
2024/04/10 08:34:43;;;;;;;0.30;0.30;;;;;;;;;;5491674;26;19994;-66
2024/04/10 08:37:08;;;;;;;2.27;0.77;;;;;;;;;;5491435;26;20002;-65
2024/04/10 08:39:34;;;;;;;3.03;1.53;;;;;;;;;;5491313;26;19990;-66
2024/04/10 08:41:59;;;;;;;3.00;0.63;;;;;;;;;;5491230;26;20071;-65
2024/04/10 08:44:25;;;;;;;0.17;0.17;;;;;;;;;;5491237;26;20438;-65
2024/04/10 08:46:50;;;;;;;2.15;0.70;;;;;;;;;;5491178;26;20331;-65
2024/04/10 08:49:16;;;;;;;0.47;0.40;;;;;;;;;;5491138;26;20353;-66
2024/04/10 08:51:42;;;;;;;3.93;1.30;;;;;;;;;;5490984;26;19994;-64
2024/04/10 08:54:07;;;;;;;0.43;0.43;;;;;;;;;;5491060;26;20268;-66
2024/04/10 08:56:33;;;;;;;0.20;0.20;;;;;;;;;;5491018;26;19994;-65
2024/04/10 08:58:58;;;;;;;3.47;0.93;;;;;;;;;;5490956;26;20001;-65
2024/04/10 09:01:25;;;;;;;0.30;0.30;;;;;;;;;;5490971;26;19990;-66
2024/04/10 09:03:50;;;;;;;0.43;0.32;;;;;;;;;;5490916;26;20699;-65
2024/04/10 09:06:18;;;;;;;1.93;0.77;;;;;;;;;;5490894;26;20071;-66
2024/04/10 09:08:43;;;;;;;1.02;0.55;;;;;;;;;;5490837;26;20022;-66
2024/04/10 09:11:09;;;;;;;0.20;0.20;;;;;;;;;;5490746;26;19994;-65
2024/04/10 09:13:34;;;;;;;1.70;0.83;;;;;;;;;;5491072;26;20002;-66
2024/04/10 09:16:00;;;;;;;0.73;0.47;;;;;;;;;;5491089;26;20002;-65
2024/04/10 09:18:26;;;;;;;12.70;0.85;;;;;;;;;;5491054;26;20001;-66
2024/04/10 09:21:02;;;;;;;0.60;0.60;;;;;;;;;;5489762;26;19998;-66
2024/04/10 09:23:27;;;;;;;0.38;0.38;;;;;;;;;;5490912;26;19994;-65
2024/04/10 09:25:53;;;;;;;0.63;0.63;;;;;;;;;;5490939;26;19996;-66
2024/04/10 09:28:18;;;;;;;0.10;0.10;;;;;;;;;;5490912;26;19994;-65
2024/04/10 09:30:43;;;;;;;5.23;0.50;;;;;;;;;;5490853;26;20346;-66
2024/04/10 09:33:09;;;;;;;0.40;0.40;;;;;;;;;;5490706;26;20001;-66
2024/04/10 09:35:34;;;;;;;1.02;0.80;;;;;;;;;;5490777;26;20251;-65
2024/04/10 09:38:01;;;;;;;7.88;1.02;;;;;;;;;;5490770;26;20444;-66
2024/04/10 09:40:27;;;;;;;0.15;0.15;;;;;;;;;;5490648;26;20001;-66
2024/04/10 09:43:05;;;;;;;0.98;0.75;;;;;;;;;;5490704;26;20330;-66
2024/04/10 09:45:34;;;;;;;1.10;0.60;;;;;;;;;;5490291;26;20075;-66
2024/04/10 09:48:18;;;;;;;0.85;0.57;;;;;;;;;;5490266;26;20330;-66
2024/04/10 09:50:44;;;;;;;1.40;0.75;;;;;;;;;;5490144;26;20004;-65
2024/04/10 09:53:13;;;;;;;0.20;0.20;;;;;;;;;;5490089;26;20002;-65
2024/04/10 09:55:38;;;;;;;0.22;0.22;;;;;;;;;;5490109;26;20326;-66
2024/04/10 09:58:05;;;;;;;9.85;0.52;;;;;;;;;;5490182;26;19990;-65
2024/04/10 10:00:31;;;;;;;0.65;0.20;;;;;;;;;;5490086;26;20071;-66
2024/04/10 10:03:06;;;;;;;0.57;0.47;;;;;;;;;;5490011;26;20002;-66
2024/04/10 10:05:32;;;;;;;0.38;0.38;;;;;;;;;;5489849;26;20457;-66
2024/04/10 10:08:04;;;;;;;1.55;0.80;;;;;;;;;;5489909;26;19999;-66
2024/04/10 10:10:29;;;;;;;;;;;;;;;;;;5490556;26;20130;-65
2024/04/10 10:13:04;;;;;;;1.40;0.30;;;;;;;;;;5489934;26;19956;-66
2024/04/10 10:15:29;;;;;;;3.75;0.32;;;;;;;;;;5490115;26;20440;-65
2024/04/10 10:17:54;;;;;;;0.30;0.30;;;;;;;;;;5490104;26;20022;-65
2024/04/10 10:20:20;;;;;;;0.10;0.10;;;;;;;;;;5490017;26;19994;-65
2024/04/10 10:23:01;;;;;;;0.63;0.52;;;;;;;;;;5489830;26;20560;-65
2024/04/10 10:25:27;;;;;;;0.40;0.40;;;;;;;;;;5489644;26;20006;-65
2024/04/10 10:28:02;;;;;;;1.92;0.88;;;;;;;;;;5489600;26;20706;-65
2024/04/10 10:30:28;;;;;;;0.00;0.00;;;;;;;;;;5489521;26;19994;-66
2024/04/10 10:33:00;;;;;;;0.52;0.43;;;;;;;;;;5491053;26;20325;-65
2024/04/10 10:35:25;;;;;;;0.10;0.10;;;;;;;;;;5493020;26;20510;-65
2024/04/10 10:37:50;;;;;;;0.10;0.10;;;;;;;;;;5493031;26;20006;-65
2024/04/10 10:40:16;;;;;;;0.83;0.77;;;;;;;;;;5493004;26;19998;-65
2024/04/10 10:42:41;;;;;;;0.47;0.40;;;;;;;;;;5492974;26;20005;-65
2024/04/10 10:45:06;;;;;;;0.10;0.10;;;;;;;;;;5493012;26;20062;-65
2024/04/10 10:47:37;;;;;;;0.20;0.20;;;;;;;;;;5492930;26;20006;-65
2024/04/10 10:50:03;;;;;;;0.38;0.38;;;;;;;;;;5492885;26;20423;-65
2024/04/10 10:52:29;;;;;;;1.02;0.77;;;;;;;;;;5492664;26;19994;-65
2024/04/10 10:54:54;;;;;;;0.10;0.10;;;;;;;;;;5492778;26;19998;-65
2024/04/10 10:57:19;;;;;;;0.00;0.00;;;;;;;;;;5492798;26;20333;-65
2024/04/10 10:59:44;;;;;;;0.47;0.47;;;;;;;;;;5492669;26;19994;-65
2024/04/10 11:02:13;;;;;;;0.57;0.40;;;;;;;;;;5492701;26;20002;-65
2024/04/10 11:04:38;;;;;;;1.90;0.38;;;;;;;;;;5492523;26;20435;-65
2024/04/10 11:07:06;;;;;;;0.00;0.00;;;;;;;;;;5492742;26;20001;-65
2024/04/10 11:09:32;;;;;;;0.30;0.30;;;;;;;;;;5492541;26;19998;-65
2024/04/10 11:11:58;;;;;;;1.35;0.82;;;;;;;;;;5492253;26;20323;-65
2024/04/10 11:14:23;;;;;;;0.10;0.10;;;;;;;;;;5492487;26;20006;-65
2024/04/10 11:16:56;;;;;;;0.10;0.10;;;;;;;;;;5492473;26;20441;-65
2024/04/10 11:19:21;;;;;;;1.00;0.15;;;;;;;;;;5492488;26;20322;-65
2024/04/10 11:21:47;;;;;;;0.00;0.00;;;;;;;;;;5492426;26;20021;-65
2024/04/10 11:24:12;;;;;;;0.13;0.13;;;;;;;;;;5492355;26;19994;-65
2024/04/10 11:26:37;;;;;;;0.00;0.00;;;;;;;;;;5492372;26;20002;-65
2024/04/10 11:29:02;;;;;;;0.10;0.10;;;;;;;;;;5492304;26;20322;-65
2024/04/10 11:31:27;;;;;;;0.57;0.53;;;;;;;;;;5492185;26;19990;-65
2024/04/10 11:33:53;;;;;;;3.27;0.70;;;;;;;;;;5492244;26;19994;-65
2024/04/10 11:36:18;;;;;;;0.10;0.10;;;;;;;;;;5492195;26;19990;-65
2024/04/10 11:38:43;;;;;;;0.20;0.20;;;;;;;;;;5492120;26;20001;-66
2024/04/10 11:41:09;;;;;;;0.60;0.40;;;;;;;;;;5492152;26;20211;-65
2024/04/10 11:43:34;;;;;;;0.22;0.22;;;;;;;;;;5491583;26;19998;-65
2024/04/10 11:46:02;;;;;;;0.10;0.10;;;;;;;;;;5492004;26;20330;-65
2024/04/10 11:48:27;;;;;;;4.90;0.73;;;;;;;;;;5491987;26;20017;-65
2024/04/10 11:50:52;;;;;;;0.53;0.43;;;;;;;;;;5492069;26;19998;-65
2024/04/10 11:53:17;;;;;;;6.55;0.38;;;;;;;;;;5491920;26;19994;-65
2024/04/10 11:55:43;;;;;;;0.17;0.13;;;;;;;;;;5491880;26;19994;-65
2024/04/10 11:58:08;;;;;;;0.50;0.30;;;;;;;;;;5491908;26;19990;-65
2024/04/10 12:00:33;;;;;;;0.67;0.57;;;;;;;;;;5491820;26;20312;-65
2024/04/10 12:02:58;;;;;;;0.10;0.10;;;;;;;;;;5491816;26;20313;-65
2024/04/10 12:05:24;;;;;;;0.00;0.00;;;;;;;;;;5491766;26;20322;-65
2024/04/10 12:07:49;;;;;;;0.93;0.47;;;;;;;;;;5491827;26;20002;-65
2024/04/10 12:10:14;;;;;;;0.10;0.10;;;;;;;;;;5491744;26;20446;-65
2024/04/10 12:12:39;;;;;;;0.10;0.10;;;;;;;;;;5491676;26;20017;-65
2024/04/10 12:15:06;;;;;;;0.20;0.20;;;;;;;;;;5491965;26;20006;-65
2024/04/10 12:17:31;;;;;;;0.43;0.43;;;;;;;;;;5492016;26;20227;-62
2024/04/10 12:19:57;;;;;;;0.47;0.47;;;;;;;;;;5491891;26;20303;-62
2024/04/10 12:22:22;;;;;;;0.15;0.13;;;;;;;;;;5491943;26;20005;-62
2024/04/10 12:24:47;;;;;;;0.00;0.00;;;;;;;;;;5491923;26;20005;-62
2024/04/10 12:27:12;;;;;;;0.00;0.00;;;;;;;;;;5491768;26;20337;-62
2024/04/10 12:29:38;;;;;;;0.30;0.20;;;;;;;;;;5491721;26;20066;-62
2024/04/10 12:32:03;;;;;;;0.00;0.00;;;;;;;;;;5491658;26;20005;-62
2024/04/10 12:34:28;;;;;;;0.03;0.03;;;;;;;;;;5491724;26;20224;-62
2024/04/10 12:39:37;;;;;;;0.43;0.20;;;;;;;;;;5492082;26;20612;-62
2024/04/10 12:42:04;;;;;;;1.00;0.40;;;;;;;;;;5491537;26;19997;-62
2024/04/10 12:44:30;;;;;;;0.00;0.00;;;;;;;;;;5491564;26;20402;-62
2024/04/10 12:46:55;;;;;;;0.00;0.00;;;;;;;;;;5491210;26;19998;-62
2024/04/10 12:49:21;;;;;;;1.25;0.20;;;;;;;;;;5491222;26;20002;-62
2024/04/10 12:51:46;;;;;;;0.00;0.00;;;;;;;;;;5491083;26;20438;-62
2024/04/10 12:54:11;;;;;;;0.00;0.00;;;;;;;;;;5491170;26;20311;-62
2024/04/10 12:56:37;;;;;;;0.15;0.15;;;;;;;;;;5489456;26;19998;-62
2024/04/10 12:59:02;;;;;;;2.17;0.63;;;;;;;;;;5491020;26;19990;-62
2024/04/10 13:01:28;;;;;;;0.30;0.30;;;;;;;;;;5490998;26;20216;-62
2024/04/10 13:03:53;;;;;;;0.23;0.23;;;;;;;;;;5490984;26;19998;-62
2024/04/10 13:06:18;;;;;;;0.00;0.00;;;;;;;;;;5490928;26;20327;-62
2024/04/10 13:08:44;;;;;;;0.47;0.25;;;;;;;;;;5490951;26;19990;-62
2024/04/10 13:11:10;;;;;;;0.10;0.10;;;;;;;;;;5490632;26;19998;-62
2024/04/10 13:13:36;;;;;;;1.48;0.30;;;;;;;;;;5491121;26;20013;-62
2024/04/10 13:16:01;;;;;;;1.77;0.47;;;;;;;;;;5491179;26;20014;-62
2024/04/10 13:18:27;;;;;;;0.10;0.10;;;;;;;;;;5491131;26;20004;-62
2024/04/10 13:20:53;;;;;;;0.90;0.45;;;;;;;;;;5491147;26;20330;-62
2024/04/10 13:23:18;;;;;;;0.47;0.47;;;;;;;;;;5490729;26;20005;-62
2024/04/10 13:25:43;;;;;;;0.20;0.20;;;;;;;;;;5490724;26;20130;-62
2024/04/10 13:28:09;;;;;;;0.00;0.00;;;;;;;;;;5490879;26;20316;-62
2024/04/10 13:30:34;;;;;;;0.10;0.10;;;;;;;;;;5490675;26;19995;-62
2024/04/10 13:32:59;;;;;;;0.20;0.20;;;;;;;;;;5490508;26;19990;-62
2024/04/10 13:35:25;;;;;;;0.10;0.10;;;;;;;;;;5490755;26;20005;-62
2024/04/10 13:37:50;;;;;;;0.40;0.40;;;;;;;;;;5490373;26;20427;-62
2024/04/10 13:40:15;;;;;;;0.17;0.17;;;;;;;;;;5490469;26;20438;-62
2024/04/10 13:42:40;;;;;;;0.00;0.00;;;;;;;;;;5490461;26;20073;-62
2024/04/10 13:45:06;;;;;;;0.33;0.33;;;;;;;;;;5490375;26;20009;-62
2024/04/10 13:47:31;;;;;;;0.17;0.17;;;;;;;;;;5490353;26;20009;-62
2024/04/10 13:49:56;;;;;;;1.43;0.63;;;;;;;;;;5490294;26;20449;-62
2024/04/10 13:52:23;;;;;;;0.20;0.20;;;;;;;;;;5490096;26;20006;-62
2024/04/10 13:54:48;;;;;;;1.35;0.45;;;;;;;;;;5490196;26;20326;-62
2024/04/10 13:57:13;;;;;;;0.00;0.00;;;;;;;;;;5490161;26;19994;-62
2024/04/10 13:59:38;;;;;;;0.10;0.10;;;;;;;;;;5490153;26;20000;-62
2024/04/10 14:02:04;;;;;;;1.50;0.57;;;;;;;;;;5490003;26;19994;-63
2024/04/10 14:04:29;;;;;;;0.90;0.90;;;;;;;;;;5489946;26;20426;-62
2024/04/10 14:06:55;;;;;;;0.30;0.30;;;;;;;;;;5489374;26;19990;-62
2024/04/10 14:09:20;;;;;;;2.40;1.00;;;;;;;;;;5489990;26;20002;-62
2024/04/10 14:11:45;;;;;;;0.00;0.00;;;;;;;;;;5489690;26;20430;-62
2024/04/10 14:14:11;;;;;;;0.87;0.33;;;;;;;;;;5490165;26;20259;-62
2024/04/10 14:16:36;;;;;;;0.80;0.45;;;;;;;;;;5490151;26;20317;-62
2024/04/10 14:19:01;;;;;;;0.00;0.00;;;;;;;;;;5490045;26;19994;-62
2024/04/10 14:21:27;;;;;;;0.80;0.37;;;;;;;;;;5490061;26;20227;-62
2024/04/10 14:23:53;;;;;;;0.10;0.10;;;;;;;;;;5489696;26;20219;-62
2024/04/10 14:26:19;;;;;;;0.43;0.40;;;;;;;;;;5489599;26;20255;-62
2024/04/10 14:28:44;;;;;;;0.08;0.08;;;;;;;;;;5489580;26;19994;-62
2024/04/10 14:31:10;;;;;;;0.15;0.15;;;;;;;;;;5489490;26;19994;-62
2024/04/10 14:33:36;;;;;;;1.23;0.20;;;;;;;;;;5489445;26;19998;-62
2024/04/10 14:36:02;;;;;;;0.13;0.13;;;;;;;;;;5489452;26;20002;-62
2024/04/10 14:38:28;;;;;;;0.20;0.20;;;;;;;;;;5489908;26;20499;-65